createdAt,value
2023-02-28T00:00:41.376Z,1027.18
2023-02-28T00:01:41.305Z,1027.16
2023-02-28T00:02:41.247Z,1027.20
2023-02-28T00:03:41.211Z,1027.21
2023-02-28T00:04:41.096Z,1027.21
2023-02-28T00:05:41.028Z,1027.25
2023-02-28T00:06:40.962Z,1027.21
2023-02-28T00:07:40.885Z,1027.18
2023-02-28T00:08:40.810Z,1027.21
2023-02-28T00:09:40.738Z,1027.19
2023-02-28T00:10:40.670Z,1027.16
2023-02-28T00:11:40.599Z,1027.19
2023-02-28T00:12:40.527Z,1027.17
2023-02-28T00:13:40.455Z,1027.19
2023-02-28T00:14:40.386Z,1027.23
2023-02-28T00:15:40.347Z,1027.25
2023-02-28T00:16:40.308Z,1027.21
2023-02-28T00:17:40.172Z,1027.25
2023-02-28T00:18:40.099Z,1027.20
2023-02-28T00:19:40.029Z,1027.19
2023-02-28T00:20:39.962Z,1027.17
2023-02-28T00:21:39.888Z,1027.19
2023-02-28T00:22:39.815Z,1027.21
2023-02-28T00:23:39.754Z,1027.20
2023-02-28T00:24:39.678Z,1027.18
2023-02-28T00:25:39.607Z,1027.17
2023-02-28T00:26:39.532Z,1027.18
2023-02-28T00:27:39.458Z,1027.20
2023-02-28T00:28:39.388Z,1027.17
2023-02-28T00:29:39.323Z,1027.16
2023-02-28T00:30:39.275Z,1027.25
2023-02-28T00:31:39.177Z,1027.24
2023-02-28T00:32:39.100Z,1027.25
2023-02-28T00:33:39.047Z,1027.23
2023-02-28T00:34:38.968Z,1027.24
2023-02-28T00:35:38.969Z,1027.26
2023-02-28T00:36:38.852Z,1027.32
2023-02-28T00:37:38.749Z,1027.25
2023-02-28T00:38:38.711Z,1027.27
2023-02-28T00:39:38.606Z,1027.31
2023-02-28T00:40:38.535Z,1027.29
2023-02-28T00:41:38.460Z,1027.29
2023-02-28T00:42:38.390Z,1027.30
2023-02-28T00:43:38.332Z,1027.30
2023-02-28T00:44:38.245Z,1027.30
2023-02-28T00:45:38.173Z,1027.33
2023-02-28T00:46:38.103Z,1027.33
2023-02-28T00:47:38.032Z,1027.31
2023-02-28T00:48:38.017Z,1027.32
2023-02-28T00:49:37.894Z,1027.31
2023-02-28T00:50:37.823Z,1027.28
2023-02-28T00:51:37.744Z,1027.32
2023-02-28T00:52:37.679Z,1027.35
2023-02-28T00:53:37.671Z,1027.33
2023-02-28T00:54:37.556Z,1027.32
2023-02-28T00:55:37.517Z,1027.36
2023-02-28T00:56:37.403Z,1027.35
2023-02-28T00:57:37.324Z,1027.33
2023-02-28T00:58:37.249Z,1027.29
2023-02-28T00:59:37.172Z,1027.32
2023-02-28T01:00:37.106Z,1027.28
2023-02-28T01:01:37.059Z,1027.30
2023-02-28T01:02:36.965Z,1027.33
2023-02-28T01:03:36.913Z,1027.28
2023-02-28T01:04:36.853Z,1027.30
2023-02-28T01:05:36.747Z,1027.31
2023-02-28T01:06:36.688Z,1027.27
2023-02-28T01:07:36.606Z,1027.30
2023-02-28T01:08:36.535Z,1027.29
2023-02-28T01:09:36.472Z,1027.29
2023-02-28T01:10:36.391Z,1027.26
2023-02-28T01:11:36.322Z,1027.28
2023-02-28T01:12:36.247Z,1027.22
2023-02-28T01:13:36.176Z,1027.27
2023-02-28T01:14:36.115Z,1027.32
2023-02-28T01:15:36.066Z,1027.26
2023-02-28T01:16:35.966Z,1027.29
2023-02-28T01:17:35.899Z,1027.30
2023-02-28T01:18:35.831Z,1027.31
2023-02-28T01:19:35.746Z,1027.25
2023-02-28T01:20:35.676Z,1027.28
2023-02-28T01:21:35.606Z,1027.24
2023-02-28T01:22:35.533Z,1027.25
2023-02-28T01:23:35.458Z,1027.25
2023-02-28T01:24:35.414Z,1027.23
2023-02-28T01:25:35.337Z,1027.21
2023-02-28T01:26:35.250Z,1027.21
2023-02-28T01:27:35.181Z,1027.18
2023-02-28T01:28:35.110Z,1027.17
2023-02-28T01:29:35.036Z,1027.14
2023-02-28T01:30:34.966Z,1027.16
2023-02-28T01:31:35.031Z,1027.13
2023-02-28T01:32:34.829Z,1027.13
2023-02-28T01:33:34.754Z,1027.15
2023-02-28T01:34:34.677Z,1027.11
2023-02-28T01:35:34.646Z,1027.11
2023-02-28T01:36:34.532Z,1027.12
2023-02-28T01:37:34.469Z,1027.12
2023-02-28T01:38:34.392Z,1027.14
2023-02-28T01:39:34.327Z,1027.11
2023-02-28T01:40:34.250Z,1027.10
2023-02-28T01:41:34.177Z,1027.13
2023-02-28T01:42:34.103Z,1027.15
2023-02-28T01:43:34.033Z,1027.16
2023-02-28T01:44:33.963Z,1027.11
2023-02-28T01:45:33.890Z,1027.11
2023-02-28T01:46:33.901Z,1027.08
2023-02-28T01:47:33.747Z,1027.08
2023-02-28T01:48:33.682Z,1027.08
2023-02-28T01:49:33.607Z,1027.10
2023-02-28T01:50:33.529Z,1027.10
2023-02-28T01:51:33.461Z,1027.12
2023-02-28T01:52:33.388Z,1027.05
2023-02-28T01:53:33.323Z,1027.09
2023-02-28T01:54:33.243Z,1027.09
2023-02-28T01:55:33.184Z,1027.10
2023-02-28T01:56:33.099Z,1027.11
2023-02-28T01:57:33.024Z,1027.07
2023-02-28T01:58:32.951Z,1027.11
2023-02-28T01:59:32.885Z,1027.08
2023-02-28T02:00:32.813Z,1027.12
2023-02-28T02:01:32.896Z,1027.10
2023-02-28T02:02:32.735Z,1027.09
2023-02-28T02:03:32.598Z,1027.13
2023-02-28T02:04:32.545Z,1027.13
2023-02-28T02:05:32.452Z,1027.07
2023-02-28T02:06:32.383Z,1027.09
2023-02-28T02:07:32.311Z,1027.09
2023-02-28T02:08:32.274Z,1027.15
2023-02-28T02:09:32.211Z,1027.10
2023-02-28T02:10:32.150Z,1027.11
2023-02-28T02:11:32.093Z,1027.12
2023-02-28T02:12:31.951Z,1027.04
2023-02-28T02:13:31.886Z,1027.08
2023-02-28T02:14:31.801Z,1027.09
2023-02-28T02:15:31.740Z,1027.13
2023-02-28T02:16:31.667Z,1027.11
2023-02-28T02:17:31.590Z,1027.10
2023-02-28T02:18:31.515Z,1027.07
2023-02-28T02:19:31.447Z,1027.09
2023-02-28T02:20:31.378Z,1027.08
2023-02-28T02:21:31.625Z,1027.11
2023-02-28T02:22:31.232Z,1027.07
2023-02-28T02:23:31.160Z,1027.07
2023-02-28T02:24:31.153Z,1027.10
2023-02-28T02:25:31.015Z,1027.03
2023-02-28T02:26:30.938Z,1027.01
2023-02-28T02:27:30.873Z,1027.06
2023-02-28T02:28:30.802Z,1027.02
2023-02-28T02:29:30.743Z,1027.07
2023-02-28T02:30:30.652Z,1027.04
2023-02-28T02:31:31.134Z,1027.00
2023-02-28T02:32:30.543Z,1027.05
2023-02-28T02:33:30.443Z,1027.04
2023-02-28T02:34:30.366Z,1027.06
2023-02-28T02:35:30.345Z,1027.06
2023-02-28T02:36:30.235Z,1027.08
2023-02-28T02:37:30.166Z,1027.06
2023-02-28T02:38:30.078Z,1027.07
2023-02-28T02:39:30.023Z,1027.09
2023-02-28T02:40:29.933Z,1027.13
2023-02-28T02:41:30.170Z,1027.13
2023-02-28T02:42:29.789Z,1027.10
2023-02-28T02:43:29.717Z,1027.14
2023-02-28T02:44:29.649Z,1027.08
2023-02-28T02:45:29.585Z,1027.12
2023-02-28T02:46:29.526Z,1027.09
2023-02-28T02:47:29.435Z,1027.06
2023-02-28T02:48:29.464Z,1027.06
2023-02-28T02:49:29.286Z,1027.07
2023-02-28T02:50:29.213Z,1027.11
2023-02-28T02:51:29.476Z,1027.07
2023-02-28T02:52:29.080Z,1027.06
2023-02-28T02:53:29.000Z,1027.09
2023-02-28T02:54:28.930Z,1027.06
2023-02-28T02:55:28.857Z,1027.07
2023-02-28T02:56:28.780Z,1027.09
2023-02-28T02:57:28.716Z,1027.07
2023-02-28T02:58:28.644Z,1027.05
2023-02-28T02:59:28.603Z,1027.06
2023-02-28T03:00:28.527Z,1027.11
2023-02-28T03:01:28.988Z,1027.07
2023-02-28T03:02:28.356Z,1027.11
2023-02-28T03:03:28.305Z,1027.12
2023-02-28T03:04:28.204Z,1027.14
2023-02-28T03:05:28.132Z,1027.10
2023-02-28T03:06:28.065Z,1027.19
2023-02-28T03:07:27.988Z,1027.13
2023-02-28T03:08:27.912Z,1027.05
2023-02-28T03:09:27.851Z,1027.08
2023-02-28T03:10:27.768Z,1027.04
2023-02-28T03:11:28.031Z,1027.06
2023-02-28T03:12:27.650Z,1027.09
2023-02-28T03:13:27.555Z,1027.13
2023-02-28T03:14:27.477Z,1027.12
2023-02-28T03:15:27.406Z,1027.16
2023-02-28T03:16:27.353Z,1027.11
2023-02-28T03:17:27.272Z,1027.10
2023-02-28T03:18:27.193Z,1027.10
2023-02-28T03:19:27.183Z,1027.16
2023-02-28T03:20:27.069Z,1027.16
2023-02-28T03:21:27.360Z,1027.17
2023-02-28T03:22:26.994Z,1027.20
2023-02-28T03:23:26.838Z,1027.16
2023-02-28T03:24:26.771Z,1027.16
2023-02-28T03:25:26.688Z,1027.16
2023-02-28T03:26:26.618Z,1027.18
2023-02-28T03:27:26.549Z,1027.17
2023-02-28T03:28:26.472Z,1027.22
2023-02-28T03:29:26.403Z,1027.21
2023-02-28T03:30:26.335Z,1027.21
2023-02-28T03:31:26.318Z,1027.25
2023-02-28T03:32:26.219Z,1027.21
2023-02-28T03:33:26.113Z,1027.27
2023-02-28T03:34:26.042Z,1027.23
2023-02-28T03:35:25.992Z,1027.20
2023-02-28T03:36:25.902Z,1027.20
2023-02-28T03:37:25.853Z,1027.21
2023-02-28T03:38:25.756Z,1027.24
2023-02-28T03:39:25.694Z,1027.26
2023-02-28T03:40:25.601Z,1027.28
2023-02-28T03:41:25.531Z,1027.30
2023-02-28T03:42:25.462Z,1027.26
2023-02-28T03:43:25.384Z,1027.26
2023-02-28T03:44:25.328Z,1027.26
2023-02-28T03:45:25.249Z,1027.24
2023-02-28T03:46:25.173Z,1027.28
2023-02-28T03:47:25.097Z,1027.26
2023-02-28T03:48:25.024Z,1027.27
2023-02-28T03:49:24.955Z,1027.26
2023-02-28T03:50:24.878Z,1027.24
2023-02-28T03:51:24.882Z,1027.26
2023-02-28T03:52:24.736Z,1027.25
2023-02-28T03:53:24.668Z,1027.25
2023-02-28T03:54:24.590Z,1027.23
2023-02-28T03:55:24.520Z,1027.24
2023-02-28T03:56:24.442Z,1027.26
2023-02-28T03:57:24.382Z,1027.23
2023-02-28T03:58:24.296Z,1027.28
2023-02-28T03:59:24.226Z,1027.25
2023-02-28T04:00:25.388Z,1027.28
2023-02-28T04:01:24.143Z,1027.30
2023-02-28T04:02:24.008Z,1027.30
2023-02-28T04:03:23.962Z,1027.30
2023-02-28T04:04:23.975Z,1027.29
2023-02-28T04:05:23.794Z,1027.28
2023-02-28T04:06:23.719Z,1027.30
2023-02-28T04:07:23.645Z,1027.29
2023-02-28T04:08:23.573Z,1027.29
2023-02-28T04:09:23.501Z,1027.24
2023-02-28T04:10:23.426Z,1027.27
2023-02-28T04:11:23.353Z,1027.27
2023-02-28T04:12:23.284Z,1027.25
2023-02-28T04:13:23.213Z,1027.25
2023-02-28T04:14:23.158Z,1027.25
2023-02-28T04:15:23.067Z,1027.24
2023-02-28T04:16:34.433Z,1027.23
2023-02-28T04:17:22.937Z,1027.25
2023-02-28T04:18:22.844Z,1027.26
2023-02-28T04:19:22.783Z,1027.27
2023-02-28T04:20:22.697Z,1027.30
2023-02-28T04:21:22.642Z,1027.28
2023-02-28T04:22:22.551Z,1027.30
2023-02-28T04:23:22.494Z,1027.28
2023-02-28T04:24:22.406Z,1027.31
2023-02-28T04:25:22.350Z,1027.29
2023-02-28T04:26:22.265Z,1027.32
2023-02-28T04:27:22.192Z,1027.29
2023-02-28T04:28:22.127Z,1027.30
2023-02-28T04:29:22.045Z,1027.34
2023-02-28T04:30:22.108Z,1027.33
2023-02-28T04:31:21.923Z,1027.29
2023-02-28T04:32:22.614Z,1027.28
2023-02-28T04:33:21.759Z,1027.34
2023-02-28T04:34:21.680Z,1027.32
2023-02-28T04:35:21.609Z,1027.35
2023-02-28T04:36:21.538Z,1027.36
2023-02-28T04:37:21.484Z,1027.34
2023-02-28T04:38:21.389Z,1027.34
2023-02-28T04:39:21.322Z,1027.34
2023-02-28T04:40:21.244Z,1027.35
2023-02-28T04:41:21.173Z,1027.37
2023-02-28T04:42:21.105Z,1027.35
2023-02-28T04:43:21.029Z,1027.36
2023-02-28T04:44:20.953Z,1027.34
2023-02-28T04:45:20.894Z,1027.36
2023-02-28T04:46:20.821Z,1027.31
2023-02-28T04:47:20.737Z,1027.32
2023-02-28T04:48:22.337Z,1027.31
2023-02-28T04:49:20.588Z,1027.37
2023-02-28T04:50:20.513Z,1027.29
2023-02-28T04:51:20.463Z,1027.32
2023-02-28T04:52:20.371Z,1027.35
2023-02-28T04:53:20.303Z,1027.34
2023-02-28T04:54:20.238Z,1027.32
2023-02-28T04:55:20.155Z,1027.33
2023-02-28T04:56:20.120Z,1027.31
2023-02-28T04:57:20.016Z,1027.34
2023-02-28T04:58:19.936Z,1027.37
2023-02-28T04:59:19.876Z,1027.36
2023-02-28T05:00:19.788Z,1027.37
2023-02-28T05:01:19.722Z,1027.43
2023-02-28T05:02:19.657Z,1027.46
2023-02-28T05:03:19.571Z,1027.47
2023-02-28T05:04:19.512Z,1027.46
2023-02-28T05:05:19.438Z,1027.45
2023-02-28T05:06:19.438Z,1027.45
2023-02-28T05:07:19.278Z,1027.42
2023-02-28T05:08:19.204Z,1027.42
2023-02-28T05:09:19.135Z,1027.50
2023-02-28T05:10:19.057Z,1027.46
2023-02-28T05:11:18.984Z,1027.49
2023-02-28T05:12:18.914Z,1027.46
2023-02-28T05:13:18.840Z,1027.48
2023-02-28T05:14:18.768Z,1027.48
2023-02-28T05:15:18.699Z,1027.51
2023-02-28T05:16:18.705Z,1027.52
2023-02-28T05:17:18.550Z,1027.49
2023-02-28T05:18:18.470Z,1027.49
2023-02-28T05:19:18.402Z,1027.46
2023-02-28T05:20:18.338Z,1027.46
2023-02-28T05:21:18.266Z,1027.56
2023-02-28T05:22:18.182Z,1027.52
2023-02-28T05:23:18.111Z,1027.50
2023-02-28T05:24:18.050Z,1027.57
2023-02-28T05:25:17.967Z,1027.54
2023-02-28T05:26:17.890Z,1027.52
2023-02-28T05:27:17.821Z,1027.54
2023-02-28T05:28:17.744Z,1027.56
2023-02-28T05:29:17.677Z,1027.55
2023-02-28T05:30:17.596Z,1027.59
2023-02-28T05:31:17.612Z,1027.59
2023-02-28T05:32:17.495Z,1027.55
2023-02-28T05:33:17.383Z,1027.60
2023-02-28T05:34:17.303Z,1027.60
2023-02-28T05:35:17.240Z,1027.55
2023-02-28T05:36:17.162Z,1027.54
2023-02-28T05:37:17.090Z,1027.57
2023-02-28T05:38:17.017Z,1027.59
2023-02-28T05:39:16.969Z,1027.58
2023-02-28T05:40:16.940Z,1027.61
2023-02-28T05:41:16.818Z,1027.63
2023-02-28T05:42:16.735Z,1027.61
2023-02-28T05:43:16.699Z,1027.59
2023-02-28T05:44:16.584Z,1027.66
2023-02-28T05:45:16.513Z,1027.64
2023-02-28T05:46:16.434Z,1027.64
2023-02-28T05:47:16.379Z,1027.68
2023-02-28T05:48:16.284Z,1027.66
2023-02-28T05:49:16.212Z,1027.64
2023-02-28T05:50:16.140Z,1027.66
2023-02-28T05:51:16.070Z,1027.74
2023-02-28T05:52:15.991Z,1027.72
2023-02-28T05:53:15.922Z,1027.73
2023-02-28T05:54:15.848Z,1027.72
2023-02-28T05:55:15.778Z,1027.73
2023-02-28T05:56:15.715Z,1027.71
2023-02-28T05:57:24.339Z,1027.75
2023-02-28T05:58:15.557Z,1027.76
2023-02-28T05:59:15.582Z,1027.71
2023-02-28T06:00:15.416Z,1027.70
2023-02-28T06:01:15.340Z,1027.70
2023-02-28T06:02:15.304Z,1027.70
2023-02-28T06:03:15.224Z,1027.75
2023-02-28T06:04:30.419Z,1027.75
2023-02-28T06:05:15.074Z,1027.75
2023-02-28T06:06:14.971Z,1027.71
2023-02-28T06:07:14.908Z,1027.75
2023-02-28T06:08:14.835Z,1027.75
2023-02-28T06:09:14.764Z,1027.74
2023-02-28T06:10:14.682Z,1027.75
2023-02-28T06:11:14.624Z,1027.76
2023-02-28T06:12:14.539Z,1027.73
2023-02-28T06:13:14.501Z,1027.79
2023-02-28T06:14:14.391Z,1027.80
2023-02-28T06:15:14.342Z,1027.80
2023-02-28T06:16:14.287Z,1027.81
2023-02-28T06:17:14.186Z,1027.79
2023-02-28T06:18:14.098Z,1027.81
2023-02-28T06:19:14.028Z,1027.85
2023-02-28T06:20:14.014Z,1027.81
2023-02-28T06:21:13.884Z,1027.82
2023-02-28T06:22:13.808Z,1027.88
2023-02-28T06:23:13.736Z,1027.85
2023-02-28T06:24:13.672Z,1027.86
2023-02-28T06:25:13.598Z,1027.88
2023-02-28T06:26:13.516Z,1027.88
2023-02-28T06:27:13.456Z,1027.91
2023-02-28T06:28:13.373Z,1027.93
2023-02-28T06:29:13.304Z,1027.94
2023-02-28T06:30:13.228Z,1027.96
2023-02-28T06:31:13.257Z,1027.97
2023-02-28T06:32:13.106Z,1027.90
2023-02-28T06:33:13.010Z,1027.97
2023-02-28T06:34:12.950Z,1027.96
2023-02-28T06:35:12.868Z,1027.99
2023-02-28T06:36:12.790Z,1027.95
2023-02-28T06:37:12.718Z,1028.02
2023-02-28T06:38:12.649Z,1028.02
2023-02-28T06:39:12.571Z,1028.00
2023-02-28T06:40:12.506Z,1028.00
2023-02-28T06:41:12.441Z,1028.00
2023-02-28T06:42:12.393Z,1028.04
2023-02-28T06:43:12.288Z,1028.10
2023-02-28T06:44:12.238Z,1028.10
2023-02-28T06:45:12.145Z,1028.10
2023-02-28T06:46:12.111Z,1028.11
2023-02-28T06:47:11.993Z,1028.09
2023-02-28T06:48:11.917Z,1028.08
2023-02-28T06:49:11.842Z,1028.14
2023-02-28T06:50:11.777Z,1028.12
2023-02-28T06:51:11.703Z,1028.14
2023-02-28T06:52:11.628Z,1028.17
2023-02-28T06:53:11.558Z,1028.16
2023-02-28T06:54:11.483Z,1028.20
2023-02-28T06:55:11.420Z,1028.21
2023-02-28T06:56:11.341Z,1028.16
2023-02-28T06:57:11.273Z,1028.18
2023-02-28T06:58:11.221Z,1028.20
2023-02-28T06:59:11.116Z,1028.19
2023-02-28T07:00:11.047Z,1028.21
2023-02-28T07:01:11.047Z,1028.25
2023-02-28T07:02:10.903Z,1028.24
2023-02-28T07:03:10.831Z,1028.30
2023-02-28T07:04:10.761Z,1028.31
2023-02-28T07:05:10.705Z,1028.33
2023-02-28T07:06:10.609Z,1028.33
2023-02-28T07:07:10.554Z,1028.35
2023-02-28T07:08:10.469Z,1028.32
2023-02-28T07:09:10.401Z,1028.33
2023-02-28T07:10:10.319Z,1028.34
2023-02-28T07:11:10.257Z,1028.32
2023-02-28T07:12:10.178Z,1028.31
2023-02-28T07:13:10.107Z,1028.31
2023-02-28T07:14:10.054Z,1028.32
2023-02-28T07:15:09.962Z,1028.32
2023-02-28T07:16:09.934Z,1028.31
2023-02-28T07:17:09.815Z,1028.32
2023-02-28T07:18:09.752Z,1028.33
2023-02-28T07:19:09.673Z,1028.39
2023-02-28T07:20:09.602Z,1028.39
2023-02-28T07:21:09.529Z,1028.36
2023-02-28T07:22:09.463Z,1028.41
2023-02-28T07:23:09.390Z,1028.41
2023-02-28T07:24:09.321Z,1028.42
2023-02-28T07:25:09.249Z,1028.45
2023-02-28T07:26:09.176Z,1028.46
2023-02-28T07:27:09.104Z,1028.46
2023-02-28T07:28:09.038Z,1028.47
2023-02-28T07:29:08.965Z,1028.51
2023-02-28T07:30:08.937Z,1028.51
2023-02-28T07:31:08.875Z,1028.48
2023-02-28T07:32:08.834Z,1028.52
2023-02-28T07:33:08.688Z,1028.53
2023-02-28T07:34:08.626Z,1028.51
2023-02-28T07:35:08.584Z,1028.54
2023-02-28T07:36:08.485Z,1028.49
2023-02-28T07:37:08.425Z,1028.53
2023-02-28T07:38:08.363Z,1028.53
2023-02-28T07:39:08.286Z,1028.51
2023-02-28T07:40:08.222Z,1028.54
2023-02-28T07:41:08.148Z,1028.51
2023-02-28T07:42:08.087Z,1028.54
2023-02-28T07:43:08.016Z,1028.53
2023-02-28T07:44:07.975Z,1028.55
2023-02-28T07:45:07.884Z,1028.55
2023-02-28T07:46:07.853Z,1028.58
2023-02-28T07:47:07.755Z,1028.58
2023-02-28T07:48:07.688Z,1028.59
2023-02-28T07:49:07.624Z,1028.61
2023-02-28T07:50:07.562Z,1028.58
2023-02-28T07:51:07.503Z,1028.61
2023-02-28T07:52:07.436Z,1028.61
2023-02-28T07:53:07.363Z,1028.57
2023-02-28T07:54:07.302Z,1028.56
2023-02-28T07:55:07.232Z,1028.54
2023-02-28T07:56:07.175Z,1028.53
2023-02-28T07:57:07.103Z,1028.56
2023-02-28T07:58:07.045Z,1028.52
2023-02-28T07:59:06.972Z,1028.53
2023-02-28T08:00:06.923Z,1028.56
2023-02-28T08:01:06.859Z,1028.56
2023-02-28T08:02:06.845Z,1028.55
2023-02-28T08:03:06.714Z,1028.60
2023-02-28T08:04:06.651Z,1028.56
2023-02-28T08:05:06.635Z,1028.55
2023-02-28T08:06:06.548Z,1028.53
2023-02-28T08:07:06.466Z,1028.51
2023-02-28T08:08:06.396Z,1028.56
2023-02-28T08:09:06.331Z,1028.54
2023-02-28T08:10:06.267Z,1028.57
2023-02-28T08:11:06.209Z,1028.56
2023-02-28T08:12:06.138Z,1028.58
2023-02-28T08:13:06.081Z,1028.60
2023-02-28T08:14:06.008Z,1028.67
2023-02-28T08:15:05.951Z,1028.62
2023-02-28T08:16:05.940Z,1028.63
2023-02-28T08:17:05.827Z,1028.59
2023-02-28T08:18:05.756Z,1028.57
2023-02-28T08:19:05.692Z,1028.56
2023-02-28T08:20:05.624Z,1028.57
2023-02-28T08:21:05.561Z,1028.56
2023-02-28T08:22:05.497Z,1028.61
2023-02-28T08:23:05.436Z,1028.57
2023-02-28T08:24:05.380Z,1028.60
2023-02-28T08:25:05.311Z,1028.59
2023-02-28T08:26:05.244Z,1028.57
2023-02-28T08:27:05.179Z,1028.58
2023-02-28T08:28:05.130Z,1028.56
2023-02-28T08:29:05.055Z,1028.58
2023-02-28T08:30:05.001Z,1028.62
2023-02-28T08:31:04.936Z,1028.65
2023-02-28T08:32:04.987Z,1028.62
2023-02-28T08:33:04.865Z,1028.63
2023-02-28T08:34:04.766Z,1028.63
2023-02-28T08:35:04.707Z,1028.67
2023-02-28T08:36:04.733Z,1028.66
2023-02-28T08:37:04.579Z,1028.68
2023-02-28T08:38:04.498Z,1028.70
2023-02-28T08:39:04.446Z,1028.74
2023-02-28T08:40:04.445Z,1028.73
2023-02-28T08:41:04.366Z,1028.72
2023-02-28T08:42:08.214Z,1028.76
2023-02-28T08:43:04.212Z,1028.73
2023-02-28T08:44:04.156Z,1028.74
2023-02-28T08:45:04.076Z,1028.73
2023-02-28T08:46:04.152Z,1028.75
2023-02-28T08:47:03.952Z,1028.74
2023-02-28T08:48:03.894Z,1028.69
2023-02-28T08:49:03.830Z,1028.71
2023-02-28T08:50:03.793Z,1028.70
2023-02-28T08:51:08.274Z,1028.72
2023-02-28T08:52:03.661Z,1028.71
2023-02-28T08:53:03.599Z,1028.75
2023-02-28T08:54:03.570Z,1028.75
2023-02-28T08:55:03.496Z,1028.80
2023-02-28T08:56:03.418Z,1028.78
2023-02-28T08:57:03.357Z,1028.77
2023-02-28T08:58:03.294Z,1028.77
2023-02-28T08:59:03.238Z,1028.74
2023-02-28T09:00:03.177Z,1028.78
2023-02-28T09:01:03.154Z,1028.81
2023-02-28T09:02:03.100Z,1028.74
2023-02-28T09:03:03.018Z,1028.71
2023-02-28T09:04:02.943Z,1028.74
2023-02-28T09:05:02.888Z,1028.78
2023-02-28T09:06:02.826Z,1028.76
2023-02-28T09:07:02.765Z,1028.78
2023-02-28T09:08:02.708Z,1028.78
2023-02-28T09:09:02.697Z,1028.74
2023-02-28T09:10:02.589Z,1028.76
2023-02-28T09:11:03.495Z,1028.77
2023-02-28T09:12:02.485Z,1028.79
2023-02-28T09:13:02.412Z,1028.76
2023-02-28T09:14:02.363Z,1028.75
2023-02-28T09:15:02.311Z,1028.77
2023-02-28T09:16:02.253Z,1028.77
2023-02-28T09:17:02.291Z,1028.80
2023-02-28T09:18:02.124Z,1028.80
2023-02-28T09:19:02.064Z,1028.80
2023-02-28T09:20:02.010Z,1028.77
2023-02-28T09:21:01.953Z,1028.75
2023-02-28T09:22:01.893Z,1028.78
2023-02-28T09:23:01.838Z,1028.74
2023-02-28T09:24:02.641Z,1028.76
2023-02-28T09:25:01.720Z,1028.79
2023-02-28T09:26:01.667Z,1028.77
2023-02-28T09:27:05.248Z,1028.75
2023-02-28T09:28:01.554Z,1028.75
2023-02-28T09:29:01.488Z,1028.74
2023-02-28T09:30:01.442Z,1028.78
2023-02-28T09:31:01.447Z,1028.70
2023-02-28T09:32:01.353Z,1028.75
2023-02-28T09:33:01.269Z,1028.73
2023-02-28T09:34:01.248Z,1028.72
2023-02-28T09:35:01.144Z,1028.77
2023-02-28T09:36:01.164Z,1028.74
2023-02-28T09:37:01.023Z,1028.68
2023-02-28T09:38:00.969Z,1028.72
2023-02-28T09:39:00.908Z,1028.73
2023-02-28T09:40:00.859Z,1028.70
2023-02-28T09:41:00.791Z,1028.72
2023-02-28T09:42:00.735Z,1028.70
2023-02-28T09:43:00.682Z,1028.69
2023-02-28T09:44:00.621Z,1028.69
2023-02-28T09:45:00.568Z,1028.70
2023-02-28T09:46:00.529Z,1028.73
2023-02-28T09:47:00.454Z,1028.74
2023-02-28T09:48:00.389Z,1028.79
2023-02-28T09:49:00.337Z,1028.76
2023-02-28T09:50:00.277Z,1028.68
2023-02-28T09:51:00.214Z,1028.67
2023-02-28T09:52:00.160Z,1028.75
2023-02-28T09:53:00.108Z,1028.69
2023-02-28T09:54:01.820Z,1028.75
2023-02-28T09:54:59.980Z,1028.74
2023-02-28T09:55:59.929Z,1028.73
2023-02-28T09:56:59.869Z,1028.75
2023-02-28T09:57:59.819Z,1028.69
2023-02-28T09:58:59.766Z,1028.74
2023-02-28T09:59:59.702Z,1028.74
2023-02-28T10:00:59.724Z,1028.77
2023-02-28T10:01:59.630Z,1028.78
2023-02-28T10:02:59.539Z,1028.77
2023-02-28T10:03:59.463Z,1028.75
2023-02-28T10:04:59.444Z,1028.71
2023-02-28T10:05:59.345Z,1028.73
2023-02-28T10:06:59.280Z,1028.73
2023-02-28T10:07:59.227Z,1028.73
2023-02-28T10:08:59.186Z,1028.72
2023-02-28T10:09:59.152Z,1028.73
2023-02-28T10:10:59.048Z,1028.73
2023-02-28T10:11:59.124Z,1028.76
2023-02-28T10:12:58.949Z,1028.79
2023-02-28T10:13:58.872Z,1028.78
2023-02-28T10:14:58.900Z,1028.77
2023-02-28T10:15:58.788Z,1028.81
2023-02-28T10:16:58.711Z,1028.76
2023-02-28T10:18:08.475Z,1028.76
2023-02-28T10:18:58.606Z,1028.80
2023-02-28T10:19:58.603Z,1028.77
2023-02-28T10:20:58.471Z,1028.77
2023-02-28T10:21:58.561Z,1028.79
2023-02-28T10:22:58.354Z,1028.78
2023-02-28T10:23:58.290Z,1028.82
2023-02-28T10:24:58.241Z,1028.78
2023-02-28T10:25:58.224Z,1028.84
2023-02-28T10:26:58.150Z,1028.80
2023-02-28T10:27:58.068Z,1028.81
2023-02-28T10:28:58.133Z,1028.81
2023-02-28T10:29:58.021Z,1028.84
2023-02-28T10:30:57.935Z,1028.82
2023-02-28T10:31:57.893Z,1028.90
2023-02-28T10:32:57.799Z,1028.87
2023-02-28T10:33:57.701Z,1028.81
2023-02-28T10:34:57.648Z,1028.83
2023-02-28T10:35:57.676Z,1028.86
2023-02-28T10:36:57.535Z,1028.82
2023-02-28T10:37:57.485Z,1028.84
2023-02-28T10:38:57.446Z,1028.86
2023-02-28T10:39:57.392Z,1028.78
2023-02-28T10:40:57.299Z,1028.83
2023-02-28T10:41:57.244Z,1028.82
2023-02-28T10:42:57.230Z,1028.80
2023-02-28T10:43:57.116Z,1028.85
2023-02-28T10:44:57.062Z,1028.80
2023-02-28T10:45:57.010Z,1028.83
2023-02-28T10:46:56.949Z,1028.86
2023-02-28T10:47:56.897Z,1028.86
2023-02-28T10:48:56.855Z,1028.80
2023-02-28T10:49:56.767Z,1028.84
2023-02-28T10:50:56.714Z,1028.83
2023-02-28T10:51:56.662Z,1028.88
2023-02-28T10:52:56.586Z,1028.83
2023-02-28T10:54:02.666Z,1028.82
2023-02-28T10:54:56.532Z,1028.90
2023-02-28T10:55:56.414Z,1028.83
2023-02-28T10:56:56.411Z,1028.79
2023-02-28T10:57:56.286Z,1028.76
2023-02-28T10:58:56.241Z,1028.82
2023-02-28T10:59:56.167Z,1028.80
2023-02-28T11:00:56.117Z,1028.79
2023-02-28T11:01:56.055Z,1028.78
2023-02-28T11:02:56.013Z,1028.77
2023-02-28T11:03:55.944Z,1028.77
2023-02-28T11:04:55.906Z,1028.85
2023-02-28T11:05:55.822Z,1028.99
2023-02-28T11:06:55.758Z,1029.11
2023-02-28T11:07:55.697Z,1029.06
2023-02-28T11:08:55.637Z,1028.86
2023-02-28T11:09:55.571Z,1028.85
2023-02-28T11:10:55.512Z,1028.81
2023-02-28T11:11:55.460Z,1028.76
2023-02-28T11:12:55.404Z,1028.75
2023-02-28T11:13:55.344Z,1028.74
2023-02-28T11:14:55.312Z,1028.69
2023-02-28T11:15:55.318Z,1028.65
2023-02-28T11:16:55.180Z,1028.63
2023-02-28T11:17:55.107Z,1028.63
2023-02-28T11:18:55.044Z,1028.55
2023-02-28T11:19:55.001Z,1028.60
2023-02-28T11:20:54.965Z,1028.63
2023-02-28T11:21:54.895Z,1028.64
2023-02-28T11:22:54.820Z,1028.61
2023-02-28T11:23:54.768Z,1028.59
2023-02-28T11:24:54.703Z,1028.61
2023-02-28T11:25:54.701Z,1028.63
2023-02-28T11:26:54.581Z,1028.62
2023-02-28T11:27:54.527Z,1028.63
2023-02-28T11:28:54.470Z,1028.62
2023-02-28T11:29:54.428Z,1028.73
2023-02-28T11:30:54.422Z,1028.79
2023-02-28T11:31:54.372Z,1028.72
2023-02-28T11:32:54.244Z,1028.72
2023-02-28T11:33:54.182Z,1028.74
2023-02-28T11:34:54.132Z,1028.76
2023-02-28T11:35:54.107Z,1028.49
2023-02-28T11:36:54.013Z,1028.34
2023-02-28T11:37:53.963Z,1028.21
2023-02-28T11:38:53.886Z,1028.22
2023-02-28T11:39:53.824Z,1028.22
2023-02-28T11:40:53.780Z,1028.22
2023-02-28T11:41:53.731Z,1028.22
2023-02-28T11:42:53.683Z,1028.20
2023-02-28T11:43:53.600Z,1028.21
2023-02-28T11:44:53.531Z,1028.17
2023-02-28T11:45:53.505Z,1028.22
2023-02-28T11:46:53.490Z,1028.26
2023-02-28T11:47:53.454Z,1028.21
2023-02-28T11:48:53.337Z,1028.18
2023-02-28T11:49:53.256Z,1028.15
2023-02-28T11:50:53.227Z,1028.16
2023-02-28T11:51:53.112Z,1028.20
2023-02-28T11:52:53.054Z,1028.22
2023-02-28T11:53:53.001Z,1028.19
2023-02-28T11:54:52.976Z,1028.20
2023-02-28T11:55:52.876Z,1028.23
2023-02-28T11:56:52.853Z,1028.18
2023-02-28T11:57:52.766Z,1028.16
2023-02-28T11:58:52.692Z,1028.16
2023-02-28T11:59:52.665Z,1028.12
2023-02-28T12:00:52.572Z,1028.15
2023-02-28T12:01:52.509Z,1028.15
2023-02-28T12:02:52.579Z,1028.20
2023-02-28T12:03:52.556Z,1028.22
2023-02-28T12:04:52.366Z,1028.20